Tiempo atmosférico en la estación meteorológica de Molina de Segura, Murcia (170 m.)



Fecha
DESCASC
Temp. máxima en grados centígrados (hora)
DESCASC
Temp. mínima en grados centígrados (hora)
DESCASC
Temp. media en grados centígrados
DESCASC
Racha de viento máxima en m/sg (hora)
DESCASC
Velocidad máxima media en intervalos de 10 minutos(hora)
DESCASC
Precipitaciones diarias en mm
DESCASC
Precipitaciones de 00:00 a 06:00 en mm
DESCASC
Precipitaciones de 06:00 a 12:00 en mm
DESCASC
Precipitaciones de 12:00 a 18:00 en mm
DESCASC
Precipitaciones de 18:00 a 24:00 en mm
DESCASC
23-06-2019 31.6 (17:00) 15.5 (07:10) 23.6 10 (16:40) 6.11 (18:00) 0 0 0 0 0
22-06-2019 30.3 (16:00) 17.5 (06:40) 23.9 10.28 (14:50) 5.83 (15:00) 0 0 0 0 0
21-06-2019 32.7 (15:40) 17.9 (07:10) 25.3 10.56 (17:00) 6.67 (18:00) 0 0 0 0 0
20-06-2019 32.3 (12:20) 17.8 (00:00) 25 11.94 (14:50) 6.67 (14:40) 0 0 0 0 0
19-06-2019 36.4 (16:30) 16.7 (00:00) 26.6 8.33 (17:10) 5 (16:30) 0 0 0 0 0
18-06-2019 33.1 (15:50) 13.4 (00:00) 23.2 9.17 (17:30) 5.28 (18:00) 0 0 0 0 0
17-06-2019 34.1 (16:20) 13.5 (00:00) 23.8 9.72 (18:50) 6.11 (18:50) 0 0 0 0 0
16-06-2019 27 (12:50) 13.8 (00:00) 20.4 8.61 (15:30) 5.28 (15:20) 0 0 0 0 0
15-06-2019 33.7 (17:10) 19.7 (00:00) 26.7 14.44 (02:40) 9.17 (02:40) 0 0 0 0 0
14-06-2019 32.4 (17:30) 17.7 (00:00) 25.1 10.28 (03:30) 6.11 (02:50) 0.8 0 0.8 0 0
13-06-2019 27.6 (17:30) 18 (00:00) 22.8 11.67 (15:40) 6.67 (16:00) 0 0 0 0 0
12-06-2019 26.4 (15:20) 13.5 (00:00) 19.9 9.72 (19:30) 5.83 (18:40) 0 0 0 0 0
11-06-2019 29.7 (14:20) 13.6 (00:00) 21.7 13.89 (19:20) 8.61 (19:30) 0 0 0 0 0
10-06-2019 32.7 (15:20) 18.1 (00:00) 25.4 12.78 (05:30) 8.61 (05:00) 0 0 0 0 0
09-06-2019 32.3 (17:20) 17.5 (00:00) 24.9 7.78 (17:50) 4.44 (17:50) 0 0 0 0 0
08-06-2019 27.6 (11:20) 14.3 (00:00) 21 12.5 (14:30) 7.5 (14:30) 0 0 0 0 0
07-06-2019 32.7 (16:30) 14.8 (00:00) 23.8 10.56 (11:00) 5.83 (11:10) 0 0 0 0 0
06-06-2019 27.8 (13:50) 14 (00:00) 20.9 10.28 (15:30) 6.11 (13:50) 0 0 0 0 0
05-06-2019 29.4 (17:30) 15.2 (00:00) 22.3 16.39 (12:40) 11.39 (12:40) 0 0 0 0 0
04-06-2019 34.1 (16:30) 13.2 (00:00) 23.6 10.56 (18:40) 6.11 (18:50) 0 0 0 0 0
03-06-2019 32.8 (17:20) 12.4 (00:00) 22.6 8.33 (18:00) 4.72 (18:00) 0 0 0 0 0
02-06-2019 31.3 (15:20) 11.8 (00:00) 21.5 8.06 (17:20) 5 (18:10) 0 0 0 0 0
01-06-2019 29.2 (17:20) 11.1 (00:00) 20.2 8.89 (18:10) 4.72 (18:40) 0 0 0 0 0
31-05-2019 27.5 (14:40) 11.3 (00:00) 19.4 8.61 (18:00) 5.56 (18:00) 0 0 0 0 0
30-05-2019 27.1 (16:20) 11.6 (00:00) 19.4 8.33 (16:30) 4.72 (20:20) 0 0 0 0 0
29-05-2019 24.9 (15:00) 13.8 (00:00) 19.3 11.11 (16:00) 6.39 (15:40) 0 0 0 0 0
28-05-2019 28.3 (15:30) 16 (00:00) 22.1 9.72 (18:50) 6.39 (20:20) 0 0 0 0 0
27-05-2019 32.7 (17:00) 13.9 (00:00) 23.3 8.89 (17:50) 5.83 (18:00) 0 0 0 0 0
26-05-2019 28.7 (16:20) 11.1 (00:00) 19.9 9.17 (16:40) 4.72 (17:20) 0 0 0 0 0
25-05-2019 24.7 (19:00) 13.9 (00:00) 19.3 8.61 (06:40) 5.83 (06:40) 0.2 0 0.2 0 0

Gráficas

Temp. máximas Temp. mínimas Temp. medias Precipitaciones Rachas de viento máximas Velocidades máximas media en intervalos de 10 minutos

Datos horarios

Fecha y hora oficial Temperatura (ºC) Velocidad del viento (km/h) Dirección del viento Racha (km/h) Dirección de racha Precipitación (mm) Presión (hPa) Tendencia (hPa) Humedad (%)
2019-06-23 23:00:00 22.3 4 Este 13 Sudeste 0 -- -- 65
2019-06-23 22:00:00 23.6 9 Este 23 Este 0 -- -- 61
2019-06-23 21:00:00 25.4 17 Sudeste 29 Sudeste 0 -- -- 52
2019-06-23 20:00:00 27.4 18 Este 33 Este 0 -- -- 47
2019-06-23 19:00:00 28.9 22 Este 35 Este 0 -- -- 38
2019-06-23 18:00:00 31 22 Sudeste 35 Sudeste 0 -- -- 31
2019-06-23 17:00:00 31.6 20 Sudeste 36 Sudeste 0 -- -- 32
2019-06-23 16:00:00 31.4 18 Sudeste 31 Este 0 -- -- 36
2019-06-23 15:00:00 30.6 16 Este 32 Este 0 -- -- 39
2019-06-23 14:00:00 30.3 15 Este 27 Este 0 -- -- 44
2019-06-23 13:00:00 30 14 Sudeste 27 Este 0 -- -- 44
2019-06-23 12:00:00 28.2 11 Este 21 Sudeste 0 -- -- 48
2019-06-23 11:00:00 26.8 8 Sudeste 16 Este 0 -- -- 50
2019-06-23 10:00:00 24.3 8 Este 14 Este 0 -- -- 53
2019-06-23 09:00:00 22.5 6 Norte 17 Norte 0 -- -- 55
2019-06-23 08:00:00 17.7 6 Noroeste 11 Noroeste 0 -- -- 77
2019-06-23 07:00:00 15.6 3 Noroeste 5 Norte 0 -- -- 88
2019-06-23 06:00:00 16 4 Noroeste 8 Noroeste 0 -- -- 89
2019-06-23 05:00:00 16.4 4 Noroeste 6 Noroeste 0 -- -- 88
2019-06-23 04:00:00 17 4 Noroeste 8 Noroeste 0 -- -- 86
2019-06-23 03:00:00 17.7 4 Norte 6 Norte 0 -- -- 87
2019-06-23 02:00:00 18.3 4 Noroeste 6 Noroeste 0 -- -- 84
2019-06-23 01:00:00 19.7 3 Noroeste 5 Este 0 -- -- 80
2019-06-23 00:00:00 20.9 3 Sudeste 10 Este 0 -- -- 78
2019-06-22 23:00:00 21.8 8 Este 14 Este 0 -- -- 76
2019-06-22 22:00:00 22.8 10 Este 23 Sudeste 0 -- -- 67
2019-06-22 21:00:00 24.3 14 Este 26 Este 0 -- -- 63
2019-06-22 20:00:00 26.3 15 Este 32 Este 0 -- -- 56
2019-06-22 19:00:00 27.6 19 Este 33 Este 0 -- -- 50
2019-06-22 18:00:00 29.1 18 Este 33 Este 0 -- -- 46
2019-06-22 17:00:00 29.7 18 Este 31 Este 0 -- -- 42
2019-06-22 16:00:00 30.3 17 Sudeste 32 Este 0 -- -- 43
2019-06-22 15:00:00 29.8 21 Sudeste 37 Este 0 -- -- 48
2019-06-22 14:00:00 29.9 18 Este 36 Este 0 -- -- 47
2019-06-22 13:00:00 29.1 14 Este 26 Sudeste 0 -- -- 46
2019-06-22 12:00:00 28.9 11 Sudeste 23 Sudeste 0 -- -- 47
2019-06-22 11:00:00 26.7 7 Sur 15 Sudeste 0 -- -- 54
2019-06-22 10:00:00 24.2 7 Oeste 16 Oeste 0 -- -- 65
2019-06-22 09:00:00 22.4 3 Sudoeste 6 Sudoeste 0 -- -- 75
2019-06-22 08:00:00 18.8 0 Calma 4 Norte 0 -- -- 88
2019-06-22 07:00:00 17.5 0 Calma 6 Norte 0 -- -- 87
2019-06-22 06:00:00 18 3 Norte 5 Noroeste 0 -- -- 83
2019-06-22 05:00:00 18.9 0 Calma 4 Noroeste 0 -- -- 83
2019-06-22 04:00:00 19.3 3 Noroeste 5 Noroeste 0 -- -- 83
2019-06-22 03:00:00 19.7 0 Calma 2 Norte 0 -- -- 79
2019-06-22 02:00:00 20.3 0 Calma 4 Noroeste 0 -- -- 78
2019-06-22 01:00:00 20.9 2 Este 10 Este 0 -- -- 77
2019-06-22 00:00:00 21.4 3 Sudeste 11 Este 0 -- -- 76
2019-06-21 23:00:00 22.1 7 Este 14 Sudeste 0 -- -- 74
2019-06-21 22:00:00 23.2 9 Este 19 Este 0 -- -- 68
2019-06-21 21:00:00 24.7 14 Este 23 Este 0 -- -- 62
2019-06-21 20:00:00 27.8 15 Sudeste 30 Sudeste 0 -- -- 56
2019-06-21 19:00:00 29.1 20 Sudeste 32 Sudeste 0 -- -- 53
2019-06-21 18:00:00 30.3 24 Sudeste 35 Sudeste 0 -- -- 51
2019-06-21 17:00:00 31.8 23 Sudeste 38 Sudeste 0 -- -- 46
2019-06-21 16:00:00 32.7 16 Sudeste 33 Sudeste 0 -- -- 44
2019-06-21 15:00:00 31.4 9 Sur 20 Sudeste 0 -- -- 44
2019-06-21 14:00:00 29.5 4 Nordeste 19 Sudeste 0 -- -- 48
2019-06-21 13:00:00 28.9 9 Este 20 Sudeste 0 -- -- 49
2019-06-21 12:00:00 28 8 Sur 23 Sur 0 -- -- 54
2019-06-21 11:00:00 26.3 5 Sur 12 Sur 0 -- -- 60
2019-06-21 10:00:00 23.6 5 Sur 10 Sur 0 -- -- 69
2019-06-21 09:00:00 20.1 2 Sudoeste 8 Oeste 0 -- -- 83
2019-06-21 08:00:00 18.4 0 Calma 4 Norte 0 -- -- 89
2019-06-21 07:00:00 18 0 Calma 7 Norte 0 -- -- 87
2019-06-21 06:00:00 18.9 0 Calma 7 Noroeste 0 -- -- 88
2019-06-21 05:00:00 19.3 3 Noroeste 5 Noroeste 0 -- -- 86
2019-06-21 04:00:00 20.2 3 Este 12 Sudeste 0 -- -- 85
2019-06-21 03:00:00 20.4 8 Sudeste 20 Este 0 -- -- 85
2019-06-21 02:00:00 20.1 10 Este 19 Este 0 -- -- 85
2019-06-21 01:00:00 19.6 7 Este 13 Sudeste 0 -- -- 89
2019-06-21 00:00:00 20.1 6 Este 17 Este 0 -- -- 86
2019-06-20 23:00:00 20.8 12 Este 20 Sudeste 0 -- -- 84
2019-06-20 22:00:00 22 14 Sudeste 32 Este 0 -- -- 78
2019-06-20 21:00:00 23.6 18 Este 34 Sudeste 0 -- -- 69
2019-06-20 20:00:00 25.5 18 Este 33 Este 0 -- -- 61
2019-06-20 19:00:00 26.7 19 Este 33 Este 0 -- -- 58
2019-06-20 18:00:00 27.8 20 Este 35 Este 0 -- -- 55
2019-06-20 17:00:00 28.9 19 Sudeste 40 Sudeste 0 -- -- 51
2019-06-20 16:00:00 28.8 20 Este 35 Este 0 -- -- 52
2019-06-20 15:00:00 28.9 22 Este 43 Este 0 -- -- 50
2019-06-20 14:00:00 30.3 22 Este 36 Sudeste 0 -- -- 44
2019-06-20 13:00:00 31.8 15 Este 26 Este 0 -- -- 39
2019-06-20 12:00:00 32.1 10 Sudeste 20 Sudeste 0 -- -- 34
2019-06-20 11:00:00 29 6 Noroeste 21 Noroeste 0 -- -- 36
2019-06-20 10:00:00 26.8 15 Noroeste 30 Noroeste 0 -- -- 39
2019-06-20 09:00:00 24.8 18 Noroeste 28 Noroeste 0 -- -- 42
2019-06-20 08:00:00 23.8 19 Noroeste 33 Noroeste 0 -- -- 44
2019-06-20 07:00:00 22.6 17 Noroeste 29 Noroeste 0 -- -- 45
2019-06-20 06:00:00 22.6 16 Noroeste 27 Noroeste 0 -- -- 45
2019-06-20 05:00:00 19 11 Noroeste 16 Noroeste 0 -- -- 56
2019-06-20 04:00:00 17.9 5 Noroeste 8 Noroeste 0 -- -- 76
2019-06-20 03:00:00 18.6 4 Noroeste 10 Norte 0 -- -- 81
2019-06-20 02:00:00 19.7 0 Calma 6 Norte 0 -- -- 78
2019-06-20 01:00:00 21.1 3 Nordeste 14 Este 0 -- -- 79
2019-06-20 00:00:00 22.1 7 Este 18 Este 0 -- -- 76
2019-06-19 23:00:00 24.1 10 Sudeste 19 Este 0 -- -- 60
2019-06-19 22:00:00 27.1 10 Este 23 Este 0 -- -- 36
2019-06-19 21:00:00 31.9 8 Sudeste 21 Sudeste 0 -- -- 29
2019-06-19 20:00:00 33.5 13 Sudeste 27 Sudeste 0 -- -- 26
2019-06-19 19:00:00 35.2 15 Sudeste 30 Sudeste 0 -- -- 24
2019-06-19 18:00:00 35.1 15 Sudeste 30 Sudeste 0 -- -- 25
2019-06-19 17:00:00 35.6 12 Sur 30 Sudeste 0 -- -- 26
2019-06-19 16:00:00 36 10 Sudeste 28 Este 0 -- -- 24
2019-06-19 15:00:00 35 8 Sudeste 19 Sudoeste 0 -- -- 24
2019-06-19 14:00:00 34.1 5 Sudoeste 20 Oeste 0 -- -- 27
2019-06-19 13:00:00 32.5 9 Oeste 19 Oeste 0 -- -- 30
2019-06-19 12:00:00 31.1 5 Norte 14 Noroeste 0 -- -- 34
2019-06-19 11:00:00 28.3 6 Oeste 18 Noroeste 0 -- -- 39
2019-06-19 10:00:00 25.6 10 Noroeste 22 Noroeste 0 -- -- 45
2019-06-19 09:00:00 22.8 11 Noroeste 22 Oeste 0 -- -- 54
2019-06-19 08:00:00 18.9 5 Oeste 15 Noroeste 0 -- -- 69
2019-06-19 07:00:00 16.8 6 Noroeste 13 Noroeste 0 -- -- 81
2019-06-19 06:00:00 17.2 4 Noroeste 8 Norte 0 -- -- 89
2019-06-19 05:00:00 17.1 5 Norte 8 Norte 0 -- -- 86
2019-06-19 04:00:00 17 3 Noroeste 5 Noroeste 0 -- -- 85
2019-06-19 03:00:00 17.4 3 Norte 8 Noroeste 0 -- -- 85
2019-06-19 02:00:00 18.9 0 Calma 8 Sudeste 0 -- -- 83
2019-06-19 01:00:00 19.7 6 Este 15 Este 0 -- -- 81
2019-06-19 00:00:00 20.5 10 Este 19 Este 0 -- -- 77
2019-06-18 23:00:00 21.4 9 Este 15 Este 0 -- -- 69
2019-06-18 22:00:00 23.1 10 Sudeste 23 Este 0 -- -- 59
2019-06-18 21:00:00 25.3 18 Este 28 Este 0 -- -- 48
2019-06-18 20:00:00 27.8 17 Este 28 Este 0 -- -- 41
2019-06-18 19:00:00 29.6 17 Este 30 Este 0 -- -- 37
2019-06-18 18:00:00 30.8 19 Este 33 Este 0 -- -- 39
2019-06-18 17:00:00 33.1 18 Sudeste 32 Sudeste 0 -- -- 33
2019-06-18 16:00:00 33.1 14 Sudeste 25 Sudeste 0 -- -- 30
2019-06-18 15:00:00 32.1 14 Sudeste 28 Sudeste 0 -- -- 31
2019-06-18 14:00:00 30.8 12 Sudeste 29 Sudeste 0 -- -- 37
2019-06-18 13:00:00 30 10 Sudeste 23 Sudeste 0 -- -- 38
2019-06-18 12:00:00 28.8 8 Sudeste 19 Sudeste 0 -- -- 37
2019-06-18 11:00:00 27.1 6 Este 13 Sudeste 0 -- -- 35
2019-06-18 10:00:00 24.7 3 Sudeste 6 Sudeste 0 -- -- 41
2019-06-18 09:00:00 19.8 0 Calma 4 Sudoeste 0 -- -- 58
2019-06-18 08:00:00 15 0 Calma 4 Oeste 0 -- -- 77
2019-06-18 07:00:00 13.6 3 Noroeste 6 Norte 0 -- -- 75
2019-06-18 06:00:00 13.6 5 Noroeste 8 Noroeste 0 -- -- 74
2019-06-18 05:00:00 13.9 4 Norte 8 Noroeste 0 -- -- 72
2019-06-18 04:00:00 14.7 3 Norte 4 Norte 0 -- -- 71
2019-06-18 03:00:00 15.6 3 Norte 6 Norte 0 -- -- 69
2019-06-18 02:00:00 16.5 3 Norte 5 Norte 0 -- -- 71
2019-06-18 01:00:00 18.3 2 Nordeste 9 Sudeste 0 -- -- 71
2019-06-18 00:00:00 19.6 4 Este 13 Este 0 -- -- 70
2019-06-17 23:00:00 20.8 6 Este 22 Este 0 -- -- 69
2019-06-17 22:00:00 22.3 11 Este 26 Nordeste 0 -- -- 64
2019-06-17 21:00:00 25.1 15 Este 30 Este 0 -- -- 43
2019-06-17 20:00:00 27.8 19 Este 33 Sudeste 0 -- -- 36
2019-06-17 19:00:00 29.7 22 Este 35 Este 0 -- -- 33
2019-06-17 18:00:00 33.1 14 Sudeste 33 Sudeste 0 -- -- 27
2019-06-17 17:00:00 33.8 19 Sudeste 33 Sudeste 0 -- -- 25
2019-06-17 16:00:00 33.5 13 Sudeste 28 Sur 0 -- -- 27
2019-06-17 15:00:00 32.3 12 Este 26 Sudeste 0 -- -- 23
2019-06-17 14:00:00 31.7 12 Sudeste 24 Sudeste 0 -- -- 25
2019-06-17 13:00:00 29.8 4 Norte 14 Sur 0 -- -- 32
2019-06-17 12:00:00 28.1 6 Sudoeste 13 Oeste 0 -- -- 35
2019-06-17 11:00:00 25.1 5 Oeste 17 Noroeste 0 -- -- 43
2019-06-17 10:00:00 22.2 13 Noroeste 25 Noroeste 0 -- -- 55
2019-06-17 09:00:00 19.5 13 Noroeste 23 Noroeste 0 -- -- 69
2019-06-17 08:00:00 16.5 14 Noroeste 21 Noroeste 0 -- -- 80
2019-06-17 07:00:00 13.5 5 Noroeste 9 Noroeste 0 -- -- 89
2019-06-17 06:00:00 13.5 5 Noroeste 7 Noroeste 0 -- -- 87
2019-06-17 05:00:00 13.7 4 Noroeste 7 Noroeste 0 -- -- 86
2019-06-17 04:00:00 14.5 4 Norte 8 Norte 0 -- -- 85
2019-06-17 03:00:00 15.5 6 Noroeste 8 Noroeste 0 -- -- 86
2019-06-17 02:00:00 15.7 5 Norte 7 Noroeste 0 -- -- 84
2019-06-17 01:00:00 16.9 3 Norte 5 Noroeste 0 -- -- 79
2019-06-17 00:00:00 18.5 3 Norte 5 Noroeste 0 -- -- 75
2019-06-16 23:00:00 20.3 0 Calma 8 Este 0 -- -- 72
2019-06-16 22:00:00 21.4 5 Este 10 Sudeste 0 -- -- 68
2019-06-16 21:00:00 22.5 5 Sudeste 23 Sudeste 0 -- -- 62
2019-06-16 20:00:00 23.5 15 Sudeste 23 Sudeste 0 -- -- 57
2019-06-16 19:00:00 24.5 11 Este 30 Este 0 -- -- 55
2019-06-16 18:00:00 24.4 17 Este 30 Sudeste 0 -- -- 55
2019-06-16 17:00:00 24.6 15 Sudeste 29 Sudeste 0 -- -- 57
2019-06-16 16:00:00 25 16 Sudeste 31 Este 0 -- -- 54
2019-06-16 15:00:00 25.8 16 Sudeste 29 Este 0 -- -- 49
2019-06-16 14:00:00 26 14 Este 27 Este 0 -- -- 55
2019-06-16 13:00:00 26.9 14 Este 28 Este 0 -- -- 49
2019-06-16 12:00:00 25.8 12 Sudeste 23 Sudeste 0 -- -- 45
2019-06-16 11:00:00 24.8 5 Sur 18 Sudeste 0 -- -- 46
2019-06-16 10:00:00 23.8 9 Sudeste 17 Este 0 -- -- 49
2019-06-16 09:00:00 21.5 3 Este 13 Este 0 -- -- 45
2019-06-16 08:00:00 15.6 3 Noroeste 6 Noroeste 0 -- -- 62
2019-06-16 07:00:00 13.9 3 Noroeste 6 Oeste 0 -- -- 62
2019-06-16 06:00:00 14.3 3 Noroeste 5 Noroeste 0 -- -- 61
2019-06-16 05:00:00 15.1 3 Noroeste 5 Noroeste 0 -- -- 58
2019-06-16 04:00:00 15.9 2 Noroeste 6 Norte 0 -- -- 57
2019-06-16 03:00:00 17 0 Calma 4 Este 0 -- -- 54
2019-06-16 02:00:00 18.3 0 Calma 9 Este 0 -- -- 51
2019-06-16 01:00:00 19.4 5 Sudeste 12 Este 0 -- -- 49
2019-06-16 00:00:00 20.9 8 Este 16 Este 0 -- -- 45
2019-06-15 23:00:00 21.9 10 Este 22 Este 0 -- -- 42
2019-06-15 22:00:00 24.1 12 Este 22 Este 0 -- -- 39
2019-06-15 21:00:00 28 11 Sudeste 22 Sur 0 -- -- 31
2019-06-15 20:00:00 30 14 Sudeste 24 Sudeste 0 -- -- 29
2019-06-15 19:00:00 30.9 14 Sudeste 30 Sur 0 -- -- 29
2019-06-15 18:00:00 32 10 Sur 26 Sudeste 0 -- -- 28
2019-06-15 17:00:00 33.2 8 Sudoeste 20 Sudoeste 0 -- -- 22
2019-06-15 16:00:00 31.7 7 Sudoeste 19 Oeste 0 -- -- 22
2019-06-15 15:00:00 30.6 9 Oeste 23 Sudoeste 0 -- -- 23
2019-06-15 14:00:00 29 8 Oeste 24 Oeste 0 -- -- 25
2019-06-15 13:00:00 27.5 9 Oeste 25 Noroeste 0 -- -- 28
2019-06-15 12:00:00 26 12 Oeste 26 Noroeste 0 -- -- 30
2019-06-15 11:00:00 24.4 15 Noroeste 33 Noroeste 0 -- -- 33
2019-06-15 10:00:00 23.1 19 Noroeste 32 Noroeste 0 -- -- 34
2019-06-15 09:00:00 22.1 12 Norte 22 Noroeste 0 -- -- 35
2019-06-15 08:00:00 20.2 13 Noroeste 24 Noroeste 0 -- -- 40
2019-06-15 07:00:00 20.1 13 Noroeste 38 Noroeste 0 -- -- 38
2019-06-15 06:00:00 20.8 25 Noroeste 42 Noroeste 0 -- -- 37
2019-06-15 05:00:00 21.3 28 Noroeste 45 Noroeste 0 -- -- 38
2019-06-15 04:00:00 22.1 30 Noroeste 46 Noroeste 0 -- -- 34
2019-06-15 03:00:00 22.7 32 Noroeste 52 Noroeste 0 -- -- 30
2019-06-15 02:00:00 23.3 20 Noroeste 35 Noroeste 0 -- -- 35
2019-06-15 01:00:00 20.1 2 Este 8 Noroeste 0 -- -- 62
2019-06-15 00:00:00 20.8 3 Norte 9 Noroeste 0 -- -- 60
2019-06-14 23:00:00 22.7 0 Calma 5 Nordeste 0 -- -- 53
2019-06-14 22:00:00 24.9 3 Nordeste 9 Sudeste 0 -- -- 47
2019-06-14 21:00:00 27.6 4 Sudeste 15 Sudeste 0 -- -- 41
2019-06-14 20:00:00 28.8 10 Sudeste 23 Sudeste 0 -- -- 39
2019-06-14 19:00:00 30.7 14 Sur 25 Sudeste 0 -- -- 37
2019-06-14 18:00:00 31.4 10 Sur 30 Sur 0 -- -- 37
2019-06-14 17:00:00 32.1 12 Sudeste 27 Sur 0 -- -- 37
2019-06-14 16:00:00 31.7 9 Sur 21 Sur 0 -- -- 39
2019-06-14 15:00:00 30.8 10 Sur 21 Sur 0 -- -- 36
2019-06-14 14:00:00 28.7 8 Oeste 19 Sudoeste 0 -- -- 41
2019-06-14 13:00:00 26.5 10 Oeste 19 Sudoeste 0 -- -- 47
2019-06-14 12:00:00 24.6 8 Sudoeste 19 Oeste 0 -- -- 54
2019-06-14 11:00:00 21.2 9 Oeste 16 Oeste 0 -- -- 73
2019-06-14 10:00:00 18.7 6 Noroeste 13 Noroeste 0 -- -- 83
2019-06-14 09:00:00 17.7 6 Oeste 17 Oeste 0.6 -- -- 86
2019-06-14 08:00:00 19 13 Noroeste 19 Noroeste 0.2 -- -- 76
2019-06-14 07:00:00 18.4 3 Oeste 9 Noroeste 0 -- -- 69
2019-06-14 06:00:00 18.9 5 Noroeste 20 Oeste 0 -- -- 70
2019-06-14 05:00:00 19.5 10 Noroeste 26 Noroeste 0 -- -- 63
2019-06-14 04:00:00 20 12 Noroeste 37 Noroeste 0 -- -- 62
2019-06-14 03:00:00 19.7 21 Oeste 34 Oeste 0 -- -- 63
2019-06-14 02:00:00 19.4 14 Noroeste 24 Noroeste 0 -- -- 68
2019-06-14 01:00:00 18.8 8 Noroeste 13 Noroeste 0 -- -- 72
2019-06-14 00:00:00 18.7 8 Noroeste 10 Noroeste 0 -- -- 71
2019-06-13 23:00:00 19.9 2 Sudoeste 14 Sudoeste 0 -- -- 68
2019-06-13 22:00:00 21.1 8 Sur 18 Sudeste 0 -- -- 63
2019-06-13 21:00:00 24 9 Sudeste 23 Sudeste 0 -- -- 51
2019-06-13 20:00:00 25.4 15 Sudeste 31 Sudeste 0 -- -- 48
2019-06-13 19:00:00 26 15 Sudeste 33 Sudeste 0 -- -- 47
2019-06-13 18:00:00 27.3 16 Sudeste 33 Sudeste 0 -- -- 44
2019-06-13 17:00:00 27.5 20 Sudeste 38 Sudeste 0 -- -- 43
2019-06-13 16:00:00 26.8 24 Sudeste 42 Sudeste 0 -- -- 44
2019-06-13 15:00:00 27.3 19 Sudeste 39 Sudeste 0 -- -- 45
2019-06-13 14:00:00 26.3 22 Sudeste 35 Sudeste 0 -- -- 46
2019-06-13 13:00:00 26.1 19 Sudeste 32 Sudeste 0 -- -- 46
2019-06-13 12:00:00 24.3 17 Este 30 Este 0 -- -- 51
2019-06-13 11:00:00 22.4 14 Este 26 Este 0 -- -- 59
2019-06-13 10:00:00 20.6 12 Sudeste 30 Este 0 -- -- 70
2019-06-13 09:00:00 19.4 14 Este 26 Sudeste 0 -- -- 76
2019-06-13 08:00:00 18.4 5 Este 12 Este 0 -- -- 88
2019-06-13 07:00:00 18.4 9 Este 19 Este 0 -- -- 87
2019-06-13 06:00:00 18.6 6 Este 12 Este 0 -- -- 86
2019-06-13 05:00:00 18.3 6 Norte 8 Norte 0 -- -- 82
2019-06-13 04:00:00 18.1 2 Sudoeste 8 Nordeste 0 -- -- 84
2019-06-13 03:00:00 18.4 5 Este 10 Este 0 -- -- 83
2019-06-13 02:00:00 18.5 6 Sudeste 11 Sudeste 0 -- -- 83
2019-06-13 01:00:00 18.5 5 Este 15 Sudeste 0 -- -- 82
2019-06-13 00:00:00 18.5 9 Este 22 Este 0 -- -- 82
2019-06-12 23:00:00 18.3 10 Este 26 Este 0 -- -- 80
2019-06-12 22:00:00 18.6 16 Este 27 Este 0 -- -- 78
2019-06-12 21:00:00 20.2 17 Sudeste 31 Sudeste 0 -- -- 70
2019-06-12 20:00:00 21.6 20 Este 35 Sudeste 0 -- -- 62
2019-06-12 19:00:00 23.6 19 Sudeste 34 Este 0 -- -- 56
2019-06-12 18:00:00 25.3 19 Sudeste 33 Sudeste 0 -- -- 46
2019-06-12 17:00:00 25.3 18 Este 32 Sudeste 0 -- -- 43
2019-06-12 16:00:00 26.1 16 Este 31 Este 0 -- -- 37
2019-06-12 15:00:00 25.7 17 Sur 34 Sudeste 0 -- -- 38
2019-06-12 14:00:00 25.7 10 Sudeste 26 Sudeste 0 -- -- 36
2019-06-12 13:00:00 24.1 9 Nordeste 20 Sudeste 0 -- -- 37
2019-06-12 12:00:00 23.6 7 Sudeste 18 Sudeste 0 -- -- 37
2019-06-12 11:00:00 22.6 5 Este 19 Sudeste 0 -- -- 44
2019-06-12 10:00:00 20.6 8 Sudeste 15 Sudeste 0 -- -- 53
2019-06-12 09:00:00 18.7 0 Calma 4 Norte 0 -- -- 68
2019-06-12 08:00:00 15.1 0 Calma 6 Norte 0 -- -- 87
2019-06-12 07:00:00 13.8 3 Noroeste 8 Norte 0 -- -- 86
2019-06-12 06:00:00 13.7 4 Norte 8 Norte 0 -- -- 86
2019-06-12 05:00:00 13.5 5 Norte 8 Norte 0 -- -- 82
2019-06-12 04:00:00 14.3 3 Norte 6 Norte 0 -- -- 76
2019-06-12 03:00:00 15.5 4 Sudeste 6 Este 0 -- -- 72
2019-06-12 02:00:00 16.1 5 Norte 15 Norte 0 -- -- 71
2019-06-12 01:00:00 16.6 9 Norte 12 Nordeste 0 -- -- 73
2019-06-12 00:00:00 17.1 5 Nordeste 11 Nordeste 0 -- -- 74
2019-06-11 23:00:00 17.7 7 Nordeste 21 Este 0 -- -- 74
2019-06-11 22:00:00 18 12 Este 25 Este 0 -- -- 73
2019-06-11 21:00:00 19.3 14 Este 35 Sudeste 0 -- -- 77
2019-06-11 20:00:00 20.4 19 Este 50 Este 0 -- -- 76
2019-06-11 19:00:00 23.8 26 Sudeste 42 Este 0 -- -- 61
2019-06-11 18:00:00 24.5 26 Este 42 Este 0 -- -- 57
2019-06-11 17:00:00 27.4 19 Sudeste 34 Sudeste 0 -- -- 48
2019-06-11 16:00:00 29.3 18 Sudeste 35 Sudeste 0 -- -- 45
2019-06-11 15:00:00 28.4 21 Este 37 Sudeste 0 -- -- 47
2019-06-11 14:00:00 29.4 12 Sudeste 28 Sudeste 0 -- -- 42
2019-06-11 13:00:00 28 10 Sudeste 21 Sudeste 0 -- -- 41
2019-06-11 12:00:00 27 8 Sudeste 16 Sudeste 0 -- -- 43
2019-06-11 11:00:00 25.1 7 Este 15 Sudeste 0 -- -- 50
2019-06-11 10:00:00 22.5 5 Nordeste 12 Norte 0 -- -- 53
2019-06-11 09:00:00 19.6 7 Norte 18 Noroeste 0 -- -- 61
2019-06-11 08:00:00 15 6 Noroeste 16 Noroeste 0 -- -- 82
2019-06-11 07:00:00 13.6 0 Calma 7 Noroeste 0 -- -- 88
2019-06-11 06:00:00 14.6 3 Noroeste 6 Norte 0 -- -- 90
2019-06-11 05:00:00 14.4 6 Norte 9 Norte 0 -- -- 86
2019-06-11 04:00:00 14.9 4 Norte 6 Noroeste 0 -- -- 87
2019-06-11 03:00:00 16.1 4 Norte 6 Noroeste 0 -- -- 84
2019-06-11 02:00:00 17.6 4 Norte 9 Este 0 -- -- 84
2019-06-11 01:00:00 18.5 5 Este 14 Este 0 -- -- 82
2019-06-11 00:00:00 19.5 8 Este 18 Este 0 -- -- 76
2019-06-10 23:00:00 20.2 10 Este 18 Este 0 -- -- 64
2019-06-10 22:00:00 21.2 10 Este 22 Nordeste 0 -- -- 55
2019-06-10 21:00:00 22.9 14 Este 29 Este 0 -- -- 51
2019-06-10 20:00:00 24.5 17 Este 33 Este 0 -- -- 48
2019-06-10 19:00:00 25.3 21 Este 34 Este 0 -- -- 50
2019-06-10 18:00:00 27.9 18 Sudeste 39 Este 0 -- -- 43
2019-06-10 17:00:00 30.8 21 Sudeste 41 Sudeste 0 -- -- 37
2019-06-10 16:00:00 31.9 21 Sudeste 34 Sudeste 0 -- -- 31
2019-06-10 15:00:00 31.9 7 Sudoeste 26 Oeste 0 -- -- 22
2019-06-10 14:00:00 31.2 6 Oeste 19 Oeste 0 -- -- 23
2019-06-10 13:00:00 29.4 8 Noroeste 24 Noroeste 0 -- -- 26
2019-06-10 12:00:00 28.1 8 Noroeste 23 Noroeste 0 -- -- 27
2019-06-10 11:00:00 25.7 17 Noroeste 26 Noroeste 0 -- -- 32
2019-06-10 10:00:00 24.6 14 Noroeste 30 Noroeste 0 -- -- 34
2019-06-10 09:00:00 23.3 13 Noroeste 34 Noroeste 0 -- -- 35
2019-06-10 08:00:00 22.4 20 Noroeste 39 Noroeste 0 -- -- 34
2019-06-10 07:00:00 22.7 28 Noroeste 43 Noroeste 0 -- -- 33
2019-06-10 06:00:00 23.3 26 Noroeste 46 Noroeste 0 -- -- 31
2019-06-10 05:00:00 23.7 31 Noroeste 45 Noroeste 0 -- -- 30
2019-06-10 04:00:00 22.5 19 Noroeste 35 Noroeste 0 -- -- 32
2019-06-10 03:00:00 18.4 0 Calma 10 Noroeste 0 -- -- 65
2019-06-10 02:00:00 18.1 5 Noroeste 10 Noroeste 0 -- -- 62
2019-06-10 01:00:00 19 5 Noroeste 9 Noroeste 0 -- -- 63
2019-06-10 00:00:00 20.5 3 Norte 9 Noroeste 0 -- -- 58
2019-06-09 23:00:00 22 6 Noroeste 11 Noroeste 0 -- -- 56
2019-06-09 22:00:00 24 5 Noroeste 10 Noroeste 0 -- -- 51
2019-06-09 21:00:00 27.4 5 Oeste 20 Sudoeste 0 -- -- 45
2019-06-09 20:00:00 29.6 10 Sudoeste 25 Sudoeste 0 -- -- 42
2019-06-09 19:00:00 29.7 13 Sur 27 Sur 0 -- -- 41
2019-06-09 18:00:00 29.8 14 Sur 28 Sudeste 0 -- -- 39
2019-06-09 17:00:00 31.7 6 Sudoeste 14 Oeste 0 -- -- 31
2019-06-09 16:00:00 30.5 8 Sudoeste 17 Sudoeste 0 -- -- 34
2019-06-09 15:00:00 28.4 5 Sudoeste 17 Oeste 0 -- -- 39
2019-06-09 14:00:00 25.8 10 Oeste 21 Oeste 0 -- -- 47
2019-06-09 13:00:00 24.4 10 Oeste 20 Sudoeste 0 -- -- 49
2019-06-09 12:00:00 23.2 9 Noroeste 18 Noroeste 0 -- -- 52
2019-06-09 11:00:00 22.5 13 Noroeste 18 Noroeste 0 -- -- 55
2019-06-09 10:00:00 21.5 8 Norte 15 Noroeste 0 -- -- 57
2019-06-09 09:00:00 19.9 11 Noroeste 17 Noroeste 0 -- -- 62
2019-06-09 08:00:00 18.5 2 Sudoeste 13 Noroeste 0 -- -- 69
2019-06-09 07:00:00 18.4 8 Oeste 15 Noroeste 0 -- -- 69
2019-06-09 06:00:00 18.3 10 Noroeste 17 Noroeste 0 -- -- 69
2019-06-09 05:00:00 17.8 11 Noroeste 18 Noroeste 0 -- -- 70
2019-06-09 04:00:00 18.1 4 Oeste 14 Noroeste 0 -- -- 67
2019-06-09 03:00:00 18 5 Norte 9 Noroeste 0 -- -- 67
2019-06-09 02:00:00 18.7 5 Noroeste 9 Noroeste 0 -- -- 66
2019-06-09 01:00:00 19.4 4 Noroeste 9 Sur 0 -- -- 64
2019-06-09 00:00:00 20 2 Sudoeste 7 Sudoeste 0 -- -- 63
2019-06-08 23:00:00 20.6 4 Noroeste 7 Sur 0 -- -- 58
2019-06-08 22:00:00 21.8 0 Calma 17 Sudeste 0 -- -- 54
2019-06-08 21:00:00 23.6 9 Sudeste 30 Sudeste 0 -- -- 50
2019-06-08 20:00:00 24.9 17 Sudeste 36 Sudeste 0 -- -- 51
2019-06-08 19:00:00 26.2 22 Sudeste 39 Sudeste 0 -- -- 48
2019-06-08 18:00:00 26.2 21 Sudeste 42 Sudeste 0 -- -- 49
2019-06-08 17:00:00 26.1 23 Sudeste 44 Sudeste 0 -- -- 52
2019-06-08 16:00:00 26.8 24 Sudeste 44 Sudeste 0 -- -- 49
2019-06-08 15:00:00 26.9 24 Sudeste 45 Sudeste 0 -- -- 50
2019-06-08 14:00:00 26.8 24 Sudeste 39 Sur 0 -- -- 48
2019-06-08 13:00:00 26.8 23 Sudeste 36 Sudeste 0 -- -- 49
2019-06-08 12:00:00 27 20 Sudeste 32 Sudeste 0 -- -- 49
2019-06-08 11:00:00 26.8 8 Sur 16 Sudeste 0 -- -- 39
2019-06-08 10:00:00 25 9 Sudeste 20 Sur 0 -- -- 45
2019-06-08 09:00:00 21.2 2 Oeste 7 Norte 0 -- -- 53
2019-06-08 08:00:00 16.1 3 Noroeste 7 Noroeste 0 -- -- 67
2019-06-08 07:00:00 14.4 3 Noroeste 5 Noroeste 0 -- -- 67
2019-06-08 06:00:00 14.6 5 Noroeste 7 Noroeste 0 -- -- 65
2019-06-08 05:00:00 15.6 2 Oeste 10 Norte 0 -- -- 61
2019-06-08 04:00:00 15.8 9 Norte 10 Norte 0 -- -- 62
2019-06-08 03:00:00 16.1 4 Norte 6 Norte 0 -- -- 68
2019-06-08 02:00:00 17.7 3 Noroeste 4 Noroeste 0 -- -- 67
2019-06-08 01:00:00 19.2 3 Nordeste 17 Este 0 -- -- 69
2019-06-08 00:00:00 20.3 9 Este 24 Este 0 -- -- 66
2019-06-07 23:00:00 21.7 12 Este 24 Este 0 -- -- 54
2019-06-07 22:00:00 24.2 10 Este 19 Este 0 -- -- 38
2019-06-07 21:00:00 27.4 6 Sur 20 Sudeste 0 -- -- 31
2019-06-07 20:00:00 29.4 14 Sudeste 25 Sudeste 0 -- -- 32
2019-06-07 19:00:00 29.6 12 Sur 26 Sur 0 -- -- 31
2019-06-07 18:00:00 30.7 12 Sur 30 Sudeste 0 -- -- 33
2019-06-07 17:00:00 31.4 15 Sur 36 Sudeste 0 -- -- 33
2019-06-07 16:00:00 31.8 6 Sudoeste 20 Sudeste 0 -- -- 27
2019-06-07 15:00:00 30 6 Nordeste 18 Oeste 0 -- -- 30
2019-06-07 14:00:00 29.2 8 Norte 21 Noroeste 0 -- -- 32
2019-06-07 13:00:00 27.6 13 Norte 28 Norte 0 -- -- 34
2019-06-07 12:00:00 25.8 15 Noroeste 31 Noroeste 0 -- -- 40
2019-06-07 11:00:00 23.8 19 Noroeste 38 Noroeste 0 -- -- 44
2019-06-07 10:00:00 21.7 18 Noroeste 37 Noroeste 0 -- -- 49
2019-06-07 09:00:00 18 15 Noroeste 27 Noroeste 0 -- -- 63
2019-06-07 08:00:00 16.6 16 Noroeste 28 Noroeste 0 -- -- 86
2019-06-07 07:00:00 15.5 10 Noroeste 25 Noroeste 0 -- -- 89
2019-06-07 06:00:00 14.8 8 Noroeste 13 Noroeste 0 -- -- 91
2019-06-07 05:00:00 15 6 Norte 9 Noroeste 0 -- -- 89
2019-06-07 04:00:00 16.2 3 Norte 8 Nordeste 0 -- -- 87
2019-06-07 03:00:00 17 6 Nordeste 15 Este 0 -- -- 89
2019-06-07 02:00:00 17.3 9 Este 14 Este 0 -- -- 88
2019-06-07 01:00:00 17.5 8 Este 18 Este 0 -- -- 88
2019-06-07 00:00:00 18 10 Este 21 Este 0 -- -- 86
2019-06-06 23:00:00 18.7 12 Este 23 Sudeste 0 -- -- 82
2019-06-06 22:00:00 19.9 14 Este 27 Sudeste 0 -- -- 75
2019-06-06 21:00:00 21.9 15 Este 31 Este 0 -- -- 67
2019-06-06 20:00:00 24.6 15 Este 28 Sudeste 0 -- -- 55
2019-06-06 19:00:00 25.9 17 Sudeste 32 Este 0 -- -- 50
2019-06-06 18:00:00 26.5 19 Este 31 Este 0 -- -- 45
2019-06-06 17:00:00 27.1 19 Sudeste 34 Este 0 -- -- 42
2019-06-06 16:00:00 26.9 19 Este 37 Este 0 -- -- 39
2019-06-06 15:00:00 27 22 Este 35 Sudeste 0 -- -- 41
2019-06-06 14:00:00 27.3 22 Este 37 Sudeste 0 -- -- 35
2019-06-06 13:00:00 27.4 16 Sudeste 28 Sudeste 0 -- -- 40
2019-06-06 12:00:00 27 12 Sudeste 21 Este 0 -- -- 36
2019-06-06 11:00:00 25.8 5 Sudeste 19 Sudeste 0 -- -- 28
2019-06-06 10:00:00 22.2 4 Noroeste 13 Noroeste 0 -- -- 32
2019-06-06 09:00:00 19.2 8 Noroeste 12 Norte 0 -- -- 38
2019-06-06 08:00:00 15.2 3 Noroeste 6 Noroeste 0 -- -- 46
2019-06-06 07:00:00 14 2 Nordeste 12 Norte 0 -- -- 45
2019-06-06 06:00:00 15.1 4 Nordeste 10 Norte 0 -- -- 42
2019-06-06 05:00:00 16.3 4 Norte 16 Norte 0 -- -- 40
2019-06-06 04:00:00 15.9 10 Norte 14 Norte 0 -- -- 40
2019-06-06 03:00:00 14.9 6 Norte 13 Noroeste 0 -- -- 45
2019-06-06 02:00:00 15.3 6 Norte 11 Noroeste 0 -- -- 44
2019-06-06 01:00:00 16.9 6 Noroeste 10 Noroeste 0 -- -- 40
2019-06-06 00:00:00 18.7 5 Norte 8 Norte 0 -- -- 35
2019-06-05 23:00:00 20.1 7 Norte 10 Noroeste 0 -- -- 32
2019-06-05 22:00:00 22.3 5 Noroeste 8 Noroeste 0 -- -- 30
2019-06-05 21:00:00 24.8 4 Norte 23 Norte 0 -- -- 24
2019-06-05 20:00:00 26.1 16 Noroeste 31 Norte 0 -- -- 21
2019-06-05 19:00:00 27.2 18 Noroeste 35 Norte 0 -- -- 20
2019-06-05 18:00:00 28.6 16 Noroeste 33 Oeste 0 -- -- 20
2019-06-05 17:00:00 29.1 17 Norte 33 Oeste 0 -- -- 19
2019-06-05 16:00:00 28 16 Noroeste 37 Noroeste 0 -- -- 22
2019-06-05 15:00:00 26.5 24 Noroeste 43 Oeste 0 -- -- 21
2019-06-05 14:00:00 26 28 Noroeste 53 Noroeste 0 -- -- 22
2019-06-05 13:00:00 25.5 37 Noroeste 59 Noroeste 0 -- -- 23
2019-06-05 12:00:00 25.3 31 Noroeste 56 Noroeste 0 -- -- 31
2019-06-05 11:00:00 25.3 30 Noroeste 41 Noroeste 0 -- -- 36
2019-06-05 10:00:00 23.8 30 Noroeste 45 Noroeste 0 -- -- 48
2019-06-05 09:00:00 19.6 9 Oeste 20 Oeste 0 -- -- 74
2019-06-05 08:00:00 17.4 9 Oeste 15 Oeste 0 -- -- 88
2019-06-05 07:00:00 15.3 2 Noroeste 6 Sudeste 0 -- -- 89
2019-06-05 06:00:00 15.4 3 Noroeste 11 Noroeste 0 -- -- 91
2019-06-05 05:00:00 15.3 6 Norte 8 Norte 0 -- -- 89
2019-06-05 04:00:00 16 5 Norte 8 Norte 0 -- -- 88
2019-06-05 03:00:00 16.8 0 Calma 5 Sudeste 0 -- -- 85
2019-06-05 02:00:00 17.9 5 Sudeste 13 Nordeste 0 -- -- 85
2019-06-05 01:00:00 18.6 6 Este 18 Este 0 -- -- 84
2019-06-05 00:00:00 19.2 10 Este 20 Este 0 -- -- 80
2019-06-04 23:00:00 20.2 12 Este 25 Este 0 -- -- 76
2019-06-04 22:00:00 21.9 16 Este 27 Este 0 -- -- 69
2019-06-04 21:00:00 24.3 13 Este 28 Este 0 -- -- 54
2019-06-04 20:00:00 27 19 Este 37 Este 0 -- -- 49
2019-06-04 19:00:00 29.8 22 Este 38 Sudeste 0 -- -- 42
2019-06-04 18:00:00 33.4 16 Sudeste 27 Sudeste 0 -- -- 27
2019-06-04 17:00:00 33.7 13 Sudeste 30 Sudeste 0 -- -- 29
2019-06-04 16:00:00 33.7 14 Sur 29 Sudeste 0 -- -- 30
2019-06-04 15:00:00 32.4 10 Sudeste 24 Sudeste 0 -- -- 29
2019-06-04 14:00:00 30.2 10 Sur 22 Sudeste 0 -- -- 34
2019-06-04 13:00:00 28.6 10 Este 19 Sudeste 0 -- -- 36
2019-06-04 12:00:00 27.6 8 Sudeste 16 Este 0 -- -- 45
2019-06-04 11:00:00 25.8 5 Sudeste 14 Sudeste 0 -- -- 51
2019-06-04 10:00:00 23.3 3 Este 8 Sudeste 0 -- -- 53
2019-06-04 09:00:00 20.2 3 Sudeste 5 Sudeste 0 -- -- 74
2019-06-04 08:00:00 14.6 0 Calma 5 Norte 0 -- -- 89
2019-06-04 07:00:00 13.3 3 Norte 5 Noroeste 0 -- -- 89
2019-06-04 06:00:00 13.5 4 Norte 6 Norte 0 -- -- 89
2019-06-04 05:00:00 14.1 3 Norte 6 Noroeste 0 -- -- 89
2019-06-04 04:00:00 15.1 4 Noroeste 5 Noroeste 0 -- -- 88
2019-06-04 03:00:00 16 4 Norte 5 Norte 0 -- -- 86
2019-06-04 02:00:00 17.6 2 Nordeste 6 Este 0 -- -- 83
2019-06-04 01:00:00 18.6 4 Este 12 Sudeste 0 -- -- 82
2019-06-04 00:00:00 19.6 10 Este 15 Este 0 -- -- 77
2019-06-03 23:00:00 20.7 9 Este 18 Este 0 -- -- 67
2019-06-03 22:00:00 22.4 12 Este 19 Sudeste 0 -- -- 44
2019-06-03 21:00:00 24.9 13 Este 24 Este 0 -- -- 38
2019-06-03 20:00:00 27.4 14 Este 25 Sudeste 0 -- -- 35
2019-06-03 19:00:00 28.5 15 Este 29 Este 0 -- -- 33
2019-06-03 18:00:00 30.9 17 Este 30 Este 0 -- -- 31
2019-06-03 17:00:00 32.3 12 Sudeste 26 Sur 0 -- -- 30
2019-06-03 16:00:00 31.8 12 Sudeste 26 Sudeste 0 -- -- 34
2019-06-03 15:00:00 31.4 6 Sur 24 Sudeste 0 -- -- 27
2019-06-03 14:00:00 29.7 10 Este 21 Sudeste 0 -- -- 26
2019-06-03 13:00:00 28.9 11 Sudeste 19 Sur 0 -- -- 26
2019-06-03 12:00:00 28.2 7 Este 17 Sudeste 0 -- -- 26
2019-06-03 11:00:00 26.7 3 Sudeste 10 Sudeste 0 -- -- 31
2019-06-03 10:00:00 22.7 2 Sudoeste 9 Oeste 0 -- -- 44
2019-06-03 09:00:00 19.6 3 Oeste 6 Oeste 0 -- -- 54
2019-06-03 08:00:00 14.2 0 Calma 4 Noroeste 0 -- -- 73
2019-06-03 07:00:00 12.4 4 Noroeste 5 Norte 0 -- -- 77
2019-06-03 06:00:00 12.8 6 Noroeste 7 Noroeste 0 -- -- 79
2019-06-03 05:00:00 13.8 4 Noroeste 7 Oeste 0 -- -- 80
2019-06-03 04:00:00 14.7 0 Calma 7 Norte 0 -- -- 78
2019-06-03 03:00:00 15 5 Norte 8 Norte 0 -- -- 73
2019-06-03 02:00:00 15.7 6 Norte 8 Norte 0 -- -- 74
2019-06-03 01:00:00 16.7 5 Nordeste 6 Nordeste 0 -- -- 71
2019-06-03 00:00:00 18.4 4 Sudeste 15 Este 0 -- -- 62
2019-06-02 23:00:00 19.8 8 Este 14 Este 0 -- -- 56
2019-06-02 22:00:00 21.2 8 Este 19 Este 0 -- -- 46
2019-06-02 21:00:00 23.9 12 Este 24 Este 0 -- -- 38
2019-06-02 20:00:00 26.9 17 Sudeste 27 Este 0 -- -- 30
2019-06-02 19:00:00 29.5 15 Sudeste 27 Este 0 -- -- 25
2019-06-02 18:00:00 31.2 14 Sudeste 29 Sur 0 -- -- 22
2019-06-02 17:00:00 31.3 14 Sudeste 28 Sudeste 0 -- -- 23
2019-06-02 16:00:00 30.7 12 Sudeste 25 Sudeste 0 -- -- 22
2019-06-02 15:00:00 30.1 11 Este 21 Sudeste 0 -- -- 22
2019-06-02 14:00:00 28.9 5 Nordeste 19 Sudeste 0 -- -- 25
2019-06-02 13:00:00 27.5 11 Sudeste 20 Este 0 -- -- 26
2019-06-02 12:00:00 26.4 4 Nordeste 13 Oeste 0 -- -- 29
2019-06-02 11:00:00 25 4 Oeste 8 Oeste 0 -- -- 31
2019-06-02 10:00:00 22.5 3 Sudoeste 6 Sudoeste 0 -- -- 37
2019-06-02 09:00:00 17.6 2 Sudoeste 6 Oeste 0 -- -- 53
2019-06-02 08:00:00 12.9 0 Calma 5 Oeste 0 -- -- 66
2019-06-02 07:00:00 11.8 3 Oeste 5 Noroeste 0 -- -- 63
2019-06-02 06:00:00 12.1 3 Oeste 9 Noroeste 0 -- -- 58
2019-06-02 05:00:00 12.6 6 Norte 9 Noroeste 0 -- -- 58
2019-06-02 04:00:00 12.6 5 Norte 7 Norte 0 -- -- 60
2019-06-02 03:00:00 13.4 4 Norte 6 Noroeste 0 -- -- 58
2019-06-02 02:00:00 14.6 4 Noroeste 6 Nordeste 0 -- -- 56
2019-06-02 01:00:00 15.5 6 Nordeste 8 Nordeste 0 -- -- 53
2019-06-02 00:00:00 16.6 0 Calma 9 Este 0 -- -- 50
2019-06-01 23:00:00 18.5 7 Este 10 Este 0 -- -- 43
2019-06-01 22:00:00 20.6 3 Sudeste 17 Este 0 -- -- 37
2019-06-01 21:00:00 23.2 12 Este 24 Sudeste 0 -- -- 32
2019-06-01 20:00:00 26 15 Sudeste 28 Este 0 -- -- 29
2019-06-01 19:00:00 27.6 17 Sudeste 32 Este 0 -- -- 26
2019-06-01 18:00:00 28.7 15 Sudeste 31 Sudeste 0 -- -- 25
2019-06-01 17:00:00 29.1 17 Sudeste 29 Sudeste 0 -- -- 25
2019-06-01 16:00:00 28.7 15 Sudeste 30 Sudeste 0 -- -- 27
2019-06-01 15:00:00 28.7 12 Sudeste 26 Sudeste 0 -- -- 27
2019-06-01 14:00:00 27.4 6 Este 25 Sudeste 0 -- -- 27
2019-06-01 13:00:00 26.3 9 Este 20 Sudeste 0 -- -- 28
2019-06-01 12:00:00 25.9 6 Sudoeste 18 Sudeste 0 -- -- 30
2019-06-01 11:00:00 24.4 6 Este 11 Nordeste 0 -- -- 29
2019-06-01 10:00:00 21.6 3 Nordeste 7 Noroeste 0 -- -- 38
2019-06-01 09:00:00 17.7 0 Calma 7 Noroeste 0 -- -- 66
2019-06-01 08:00:00 12.9 0 Calma 7 Oeste 0 -- -- 87
2019-06-01 07:00:00 11.2 5 Norte 8 Noroeste 0 -- -- 80
2019-06-01 06:00:00 11.7 4 Noroeste 9 Norte 0 -- -- 81
2019-06-01 05:00:00 12.6 4 Norte 8 Noroeste 0 -- -- 83
2019-06-01 04:00:00 13.3 4 Norte 7 Noroeste 0 -- -- 81
2019-06-01 03:00:00 13.7 4 Noroeste 7 Noroeste 0 -- -- 80
2019-06-01 02:00:00 14.4 4 Norte 8 Norte 0 -- -- 76
2019-06-01 01:00:00 15.3 3 Norte 4 Norte 0 -- -- 70
2019-06-01 00:00:00 17.1 0 Calma 8 Este 0 -- -- 65
2019-05-31 23:00:00 18.5 7 Sudeste 14 Este 0 -- -- 61
2019-05-31 22:00:00 19.6 6 Este 18 Este 0 -- -- 55
2019-05-31 21:00:00 21.9 11 Este 24 Este 0 -- -- 47
2019-05-31 20:00:00 24.6 14 Sudeste 27 Este 0 -- -- 41
2019-05-31 19:00:00 26.1 13 Sudeste 29 Sudeste 0 -- -- 38
2019-05-31 18:00:00 26.2 20 Sudeste 31 Sudeste 0 -- -- 38
2019-05-31 17:00:00 26.7 18 Este 31 Sudeste 0 -- -- 40
2019-05-31 16:00:00 26.6 15 Este 29 Este 0 -- -- 40
2019-05-31 15:00:00 26.9 15 Este 29 Sudeste 0 -- -- 40
2019-05-31 14:00:00 26.8 11 Sudeste 26 Este 0 -- -- 37
2019-05-31 13:00:00 25.7 10 Sudeste 23 Sudeste 0 -- -- 36
2019-05-31 12:00:00 24.9 12 Sudeste 23 Este 0 -- -- 36
2019-05-31 11:00:00 24.1 11 Sudeste 18 Sudeste 0 -- -- 41
2019-05-31 10:00:00 21.9 2 Sudeste 9 Norte 0 -- -- 47
2019-05-31 09:00:00 17.6 7 Norte 14 Norte 0 -- -- 68
2019-05-31 08:00:00 13.9 9 Norte 13 Norte 0 -- -- 82
2019-05-31 07:00:00 11.3 5 Noroeste 9 Noroeste 0 -- -- 89
2019-05-31 06:00:00 11.5 4 Noroeste 8 Norte 0 -- -- 88
2019-05-31 05:00:00 12.2 2 Noroeste 8 Norte 0 -- -- 88
2019-05-31 04:00:00 12.9 5 Norte 8 Norte 0 -- -- 84
2019-05-31 03:00:00 13.7 4 Norte 8 Norte 0 -- -- 83
2019-05-31 02:00:00 14 4 Norte 5 Norte 0 -- -- 80
2019-05-31 01:00:00 15.2 2 Norte 5 Este 0 -- -- 77
2019-05-31 00:00:00 16.5 3 Este 12 Este 0 -- -- 72
2019-05-30 23:00:00 17.7 5 Sudeste 14 Sudeste 0 -- -- 67
2019-05-30 22:00:00 19.3 8 Sudeste 18 Sudeste 0 -- -- 60
2019-05-30 21:00:00 22 11 Sudeste 26 Sudeste 0 -- -- 48
2019-05-30 20:00:00 24.5 16 Sudeste 27 Sudeste 0 -- -- 42
2019-05-30 19:00:00 25.7 14 Sur 29 Sudeste 0 -- -- 39
2019-05-30 18:00:00 27 14 Sudeste 28 Sudeste 0 -- -- 36
2019-05-30 17:00:00 26.9 10 Sudeste 30 Sur 0 -- -- 34
2019-05-30 16:00:00 26.8 8 Sur 29 Sudeste 0 -- -- 34
2019-05-30 15:00:00 26.6 13 Sudeste 28 Sudeste 0 -- -- 39
2019-05-30 14:00:00 25.1 10 Sudeste 24 Sudeste 0 -- -- 45
2019-05-30 13:00:00 24.4 6 Sudeste 20 Sudeste 0 -- -- 45
2019-05-30 12:00:00 23.6 5 Este 18 Sudeste 0 -- -- 48
2019-05-30 11:00:00 21.9 5 Sur 13 Sudeste 0 -- -- 56
2019-05-30 10:00:00 20.2 4 Sudoeste 6 Sudeste 0 -- -- 61
2019-05-30 09:00:00 18 2 Sur 5 Este 0 -- -- 67
2019-05-30 08:00:00 12.7 0 Calma 6 Noroeste 0 -- -- 84
2019-05-30 07:00:00 11.6 3 Noroeste 6 Noroeste 0 -- -- 85
2019-05-30 06:00:00 12.2 4 Noroeste 6 Norte 0 -- -- 84
2019-05-30 05:00:00 12.5 5 Noroeste 9 Norte 0 -- -- 85
2019-05-30 04:00:00 12.9 6 Norte 8 Norte 0 -- -- 82
2019-05-30 03:00:00 13.6 6 Norte 8 Norte 0 -- -- 77
2019-05-30 02:00:00 13.6 2 Noroeste 4 Noroeste 0 -- -- 73
2019-05-30 01:00:00 15 2 Nordeste 11 Este 0 -- -- 70
2019-05-30 00:00:00 15.9 7 Este 14 Este 0 -- -- 68
2019-05-29 23:00:00 16.4 8 Este 13 Este 0 -- -- 64
2019-05-29 22:00:00 17.6 9 Este 24 Este 0 -- -- 53
2019-05-29 21:00:00 19.7 15 Este 25 Este 0 -- -- 49
2019-05-29 20:00:00 22.4 14 Este 24 Sudeste 0 -- -- 42
2019-05-29 19:00:00 23.7 17 Sudeste 30 Este 0 -- -- 41
2019-05-29 18:00:00 22.9 17 Sudeste 34 Sudeste 0 -- -- 43
2019-05-29 17:00:00 22.9 23 Este 37 Este 0 -- -- 44
2019-05-29 16:00:00 23.7 22 Sudeste 40 Sudeste 0 -- -- 45
2019-05-29 15:00:00 24.9 19 Sudeste 32 Sudeste 0 -- -- 45
2019-05-29 14:00:00 24.8 6 Sudeste 19 Sur 0 -- -- 46
2019-05-29 13:00:00 24.2 6 Sur 15 Sudeste 0 -- -- 48
2019-05-29 12:00:00 22.1 6 Sudoeste 15 Sur 0 -- -- 52
2019-05-29 11:00:00 20.8 7 Sudeste 17 Sudeste 0 -- -- 58
2019-05-29 10:00:00 19.6 8 Sudeste 15 Sudeste 0 -- -- 61
2019-05-29 09:00:00 17.5 4 Sudeste 15 Este 0 -- -- 70
2019-05-29 08:00:00 16.2 6 Este 12 Este 0 -- -- 74
2019-05-29 07:00:00 13.9 5 Nordeste 8 Nordeste 0 -- -- 88
2019-05-29 06:00:00 14.4 4 Norte 12 Norte 0 -- -- 93
2019-05-29 05:00:00 14.6 6 Norte 8 Noroeste 0 -- -- 94
2019-05-29 04:00:00 14.8 6 Noroeste 9 Noroeste 0 -- -- 93
2019-05-29 03:00:00 15 4 Norte 6 Norte 0 -- -- 92
2019-05-29 02:00:00 15.7 4 Noroeste 6 Noroeste 0 -- -- 88
2019-05-29 01:00:00 16.7 2 Este 10 Sudeste 0 -- -- 87
2019-05-29 00:00:00 17.5 9 Este 17 Este 0 -- -- 86
2019-05-28 23:00:00 18.2 11 Este 24 Este 0 -- -- 83
2019-05-28 22:00:00 19.1 15 Este 30 Sudeste 0 -- -- 79
2019-05-28 21:00:00 20.6 21 Este 33 Este 0 -- -- 72
2019-05-28 20:00:00 22.5 20 Este 31 Este 0 -- -- 65
2019-05-28 19:00:00 24.1 18 Este 35 Sudeste 0 -- -- 60
2019-05-28 18:00:00 25.2 19 Este 33 Sudeste 0 -- -- 56
2019-05-28 17:00:00 26.5 18 Este 32 Este 0 -- -- 53
2019-05-28 16:00:00 27.6 16 Sudeste 31 Sur 0 -- -- 48
2019-05-28 15:00:00 27.8 16 Sudeste 28 Sudeste 0 -- -- 48
2019-05-28 14:00:00 27.4 10 Este 25 Este 0 -- -- 48
2019-05-28 13:00:00 27 12 Sudeste 23 Sudeste 0 -- -- 48
2019-05-28 12:00:00 26 11 Sudeste 21 Este 0 -- -- 50
2019-05-28 11:00:00 24.7 9 Sudeste 19 Este 0 -- -- 52
2019-05-28 10:00:00 22.6 5 Este 10 Este 0 -- -- 66
2019-05-28 09:00:00 19.8 5 Norte 12 Norte 0 -- -- 81
2019-05-28 08:00:00 16.7 6 Norte 9 Noroeste 0 -- -- 94
2019-05-28 07:00:00 16 6 Norte 9 Norte 0 -- -- 94
2019-05-28 06:00:00 16.6 6 Norte 8 Norte 0 -- -- 93
2019-05-28 05:00:00 17.4 3 Norte 10 Este 0 -- -- 92
2019-05-28 04:00:00 17.9 8 Este 19 Este 0 -- -- 93
2019-05-28 03:00:00 18.2 11 Este 25 Este 0 -- -- 92
2019-05-28 02:00:00 18.2 12 Este 23 Este 0 -- -- 91
2019-05-28 01:00:00 18.4 14 Este 23 Este 0 -- -- 87
2019-05-28 00:00:00 19 11 Este 23 Este 0 -- -- 80
2019-05-27 23:00:00 20 12 Sudeste 20 Este 0 -- -- 76
2019-05-27 22:00:00 21.6 12 Este 22 Este 0 -- -- 66
2019-05-27 21:00:00 23.8 12 Este 23 Este 0 -- -- 50
2019-05-27 20:00:00 25.8 17 Este 30 Este 0 -- -- 45
2019-05-27 19:00:00 30.6 15 Sudeste 31 Sudeste 0 -- -- 37
2019-05-27 18:00:00 31.3 21 Sudeste 32 Sudeste 0 -- -- 37
2019-05-27 17:00:00 32.7 8 Sudeste 26 Norte 0 -- -- 28
2019-05-27 16:00:00 31.8 6 Noroeste 17 Oeste 0 -- -- 29
2019-05-27 15:00:00 30.2 10 Oeste 19 Oeste 0 -- -- 33
2019-05-27 14:00:00 28.3 8 Noroeste 20 Oeste 0 -- -- 38
2019-05-27 13:00:00 26.8 6 Sudoeste 19 Noroeste 0 -- -- 42
2019-05-27 12:00:00 24.9 10 Noroeste 26 Oeste 0 -- -- 47
2019-05-27 11:00:00 23.3 12 Noroeste 19 Noroeste 0 -- -- 54
2019-05-27 10:00:00 20.8 9 Norte 21 Noroeste 0 -- -- 63
2019-05-27 09:00:00 17.8 9 Noroeste 17 Oeste 0 -- -- 71
2019-05-27 08:00:00 15 8 Oeste 13 Oeste 0 -- -- 86
2019-05-27 07:00:00 14 3 Oeste 9 Noroeste 0 -- -- 92
2019-05-27 06:00:00 14.1 4 Noroeste 10 Oeste 0 -- -- 92
2019-05-27 05:00:00 14 5 Noroeste 8 Noroeste 0 -- -- 90
2019-05-27 04:00:00 14.9 4 Norte 6 Norte 0 -- -- 89
2019-05-27 03:00:00 15.9 3 Nordeste 9 Este 0 -- -- 87
2019-05-27 02:00:00 16.5 3 Este 9 Sudeste 0 -- -- 84
2019-05-27 01:00:00 17.4 5 Este 14 Este 0 -- -- 83
2019-05-27 00:00:00 18.3 6 Este 14 Este 0 -- -- 79
2019-05-26 23:00:00 19.3 7 Este 19 Este 0 -- -- 68
2019-05-26 22:00:00 20.8 6 Este 14 Sudeste 0 -- -- 53
2019-05-26 21:00:00 23.8 9 Sudeste 22 Sur 0 -- -- 45
2019-05-26 20:00:00 26.4 9 Sur 23 Sudoeste 0 -- -- 40
2019-05-26 19:00:00 27.1 13 Sudoeste 28 Sudoeste 0 -- -- 39
2019-05-26 18:00:00 27 15 Sudoeste 30 Sudoeste 0 -- -- 40
2019-05-26 17:00:00 27.9 16 Sudoeste 33 Sudoeste 0 -- -- 37
2019-05-26 16:00:00 28.2 13 Sudoeste 29 Sudoeste 0 -- -- 36
2019-05-26 15:00:00 27.1 9 Sudeste 23 Sur 0 -- -- 38
2019-05-26 14:00:00 26.6 8 Sur 23 Sur 0 -- -- 40
2019-05-26 13:00:00 25.3 7 Oeste 18 Oeste 0 -- -- 43
2019-05-26 12:00:00 24 7 Sudoeste 16 Oeste 0 -- -- 46
2019-05-26 11:00:00 21.3 6 Oeste 14 Oeste 0 -- -- 59
2019-05-26 10:00:00 19.3 8 Oeste 14 Oeste 0 -- -- 66
2019-05-26 09:00:00 15.7 4 Noroeste 7 Oeste 0 -- -- 88
2019-05-26 08:00:00 12.5 0 Calma 8 Norte 0 -- -- 96
2019-05-26 07:00:00 11.3 4 Noroeste 6 Noroeste 0 -- -- 95
2019-05-26 06:00:00 11.7 0 Calma 7 Sudoeste 0 -- -- 93
2019-05-26 05:00:00 12 2 Oeste 6 Noroeste 0 -- -- 92
2019-05-26 04:00:00 12.6 4 Norte 8 Noroeste 0 -- -- 91
2019-05-26 03:00:00 13.3 5 Noroeste 9 Norte 0 -- -- 90
2019-05-26 02:00:00 14 5 Norte 8 Norte 0 -- -- 89
2019-05-26 01:00:00 14.7 4 Norte 7 Noroeste 0 -- -- 86
2019-05-26 00:00:00 15.1 0 Calma 4 Noroeste 0 -- -- 84
2019-05-25 23:00:00 16.6 4 Este 11 Este 0 -- -- 77
2019-05-25 22:00:00 18.4 5 Este 17 Sudeste 0 -- -- 69
2019-05-25 21:00:00 21.9 10 Sudeste 17 Sudeste 0 -- -- 56
2019-05-25 20:00:00 23.9 8 Sur 15 Sudeste 0 -- -- 47
2019-05-25 19:00:00 24.7 3 Sur 13 Sudoeste 0 -- -- 45
2019-05-25 18:00:00 22 5 Sur 16 Sur 0 -- -- 53
2019-05-25 17:00:00 22 7 Sudeste 19 Sudeste 0 -- -- 52
2019-05-25 16:00:00 22.2 12 Sudeste 27 Sudeste 0 -- -- 52
2019-05-25 15:00:00 23.6 6 Sudeste 23 Sudeste 0 -- -- 48
2019-05-25 14:00:00 22.7 9 Sudeste 20 Sudeste 0 -- -- 50
2019-05-25 13:00:00 20.9 7 Este 13 Sudeste 0 -- -- 58
2019-05-25 12:00:00 20.4 8 Nordeste 21 Este 0 -- -- 61
2019-05-25 11:00:00 17.5 10 Noroeste 20 Noroeste 0.2 -- -- 69
2019-05-25 10:00:00 16.4 15 Noroeste 23 Noroeste 0 -- -- 68
2019-05-25 09:00:00 15.6 13 Noroeste 22 Noroeste 0 -- -- 70
2019-05-25 08:00:00 14.8 9 Noroeste 26 Noroeste 0 -- -- 74
2019-05-25 07:00:00 14.5 17 Noroeste 31 Noroeste 0 -- -- 72
2019-05-25 06:00:00 14 9 Noroeste 24 Noroeste 0 -- -- 76
2019-05-25 05:00:00 14.4 13 Noroeste 24 Noroeste 0 -- -- 73
2019-05-25 04:00:00 14.3 15 Norte 24 Noroeste 0 -- -- 75
2019-05-25 03:00:00 14.4 14 Norte 21 Noroeste 0 -- -- 73
2019-05-25 02:00:00 14.8 11 Noroeste 20 Noroeste 0 -- -- 75
2019-05-25 01:00:00 14.6 14 Noroeste 19 Noroeste 0 -- -- 75
2019-05-25 00:00:00 13.9 4 Noroeste 11 Norte 0 -- -- 83